• Join FlightAware (Why Join?)
  • Login
  • US Flag 
06:31AM EDT


 

Airport Tracker/Info


-or-


 

Live Flight TrackerFlight Track Log ✈ N147SW ✈ 20-Mar-2014 ✈ MYBC / CCZ - KPIE

Flight Track Log - Related Links

Times and Time Zones

All times are in EDT time to prevent confusion due to time zone crossing. See the N147SW flight status page for this flight to view local times or setup timezone preferences in your user account.

Time Position Orientation Groundspeed Altitude Reporting Facility
EDT Latitude Longitude Course Direction KTS MPH feet Rate Location/Type
05:26PM 25.5294 -78.1025 295° West 317 365 15,400  Level Miami Center
05:27PM 25.5622 -78.1811 295° West 284 327 17,500 2,100 Climbing Miami Center
05:28PM 25.6056 -78.2622 301° West 287 330 19,700 2,340 Climbing Miami Center
05:29PM 25.6486 -78.3456 300° West 301 346 22,200 3,000 Climbing Miami Center
05:30PM 25.6875 -78.4222 299° West 301 346 25,700 1,860 Climbing Miami Center
05:31PM 25.7303 -78.5106 298° West 307 353 26,000 120 Climbing Miami Center
05:32PM 25.7814 -78.6128 299° West 342 394 26,000  Level Miami Center
05:33PM 25.8303 -78.7264 296° West 380 437 26,000  Level Miami Center
05:34PM 25.8850 -78.8383 299° West 398 458 26,000  Level Miami Center
05:35PM 25.9442 -78.9478 301° West 408 470 26,000  Level Miami Center
05:36PM 26.0011 -79.0597 300° West 414 476 26,000  Level Miami Center
05:37PM 26.0558 -79.1717 299° West 414 476 26,000  Level Miami Center
05:38PM 26.1125 -79.2864 299° West 414 476 26,000  Level Miami Center
05:39PM 26.1647 -79.4008 297° West 414 476 26,000  Level Miami Center
05:40PM 26.2211 -79.5156 299° West 414 476 26,000  Level Miami Center
05:41PM 26.2736 -79.6256 298° West 414 476 26,000  Level Miami Center
05:42PM 26.3339 -79.7475 299° West 414 476 26,000  Level Miami Center
05:43PM 26.3819 -79.8506 298° West 414 476 26,000  Level Miami Center
05:44PM 26.4400 -79.9728 298° West 414 476 26,000  Level Miami Center
05:45PM 26.4897 -80.0761 298° West 414 476 26,000  Level Miami Center
05:46PM 26.5436 -80.1892 298° West 414 476 26,000  Level Miami Center
05:47PM 26.6033 -80.3139 298° West 414 476 26,000  Level Miami Center
05:48PM 26.6511 -80.4128 298° West 414 476 26,000  Level Miami Center
05:49PM 26.7086 -80.5378 297° West 414 476 26,000  Level Miami Center
05:50PM 26.7561 -80.6372 298° West 414 476 26,000  Level Miami Center
05:51PM 26.7997 -80.7292 298° West 414 476 26,000  Level Miami Center
05:52PM 26.8608 -80.8617 297° West 414 476 26,000  Level Miami Center
05:53PM 26.9161 -80.9753 299° West 408 470 26,000  Level Miami Center
05:54PM 26.9672 -81.0867 297° West 408 470 26,000  Level Miami Center
05:55PM 27.0183 -81.1981 297° West 403 464 26,000 -300 Level Miami Center
05:56PM 27.0772 -81.3214 298° West 403 464 25,400 -1,320 Descending Miami Center
05:57PM 27.1339 -81.4425 298° West 414 476 23,400 -1,740 Descending Miami Center
05:58PM 27.1614 -81.5628 284° West 406 467 22,000 -1,200 Descending Miami Center
05:59PM 27.1472 -81.6719 262° West 389 448 21,100 -1,500 Descending Miami Center
06:00PM 27.1833 -81.7831 290° West 356 410 19,000 -2,100 Descending Miami Center
06:01PM 27.2550 -81.8794 310° West 382 440 17,000 -2,100 Descending Miami Center
06:02PM 27.3289 -81.9761 311° West 400 460 14,800 -2,220 Descending Miami Center
06:03PM 27.4008 -82.0681 311° West 400 460 12,600 -1,920 Descending Miami Center
06:04PM 27.4747 -82.1606 312° West 400 460 11,000 -840 Descending Miami Center
06:05PM 27.5586 -82.2556 315° West 389 448 11,000 -420 Level Miami Center
06:06PM 27.5861 -82.3553 287° West 378 435 10,200 -1,260 Descending Miami Center
06:07PM 27.5928 -82.4539 274° West 341 392 8,500 -1,980 Descending Miami Center
06:08PM 27.6000 -82.5500 275° West 255 293 6,200 -2,160 Descending Tampa TRACON
06:09PM 27.6000 -82.6333 270° West 258 297 4,200 -1,560 Descending Tampa TRACON
06:10PM 27.6500 -82.6833 318° Northwest 269 310 3,100 -720 Descending Tampa TRACON
06:11PM 27.7167 -82.7000 348° North 247 284 2,800 -540 Descending Tampa TRACON
06:12PM 27.7833 -82.6833 12° North 258 297 2,100 -900 Descending Tampa TRACON
06:13PM 27.8500 -82.6833 360° North 217 250 1,000 -1,140 Descending Tampa TRACON
06:15PM 27.9100 -82.6875 356° North  Level Estimated
06:22PM 27.9100 -82.6875 214° Southwest  Level Estimated
06:23PM 27.9100 -82.6875 214° Southwest  Level Estimated